Halcyon, California
Current Conditions -  °F | °C
As of 2:38 AM on Friday 24 Oct 2014 (Local Time) from KSBP Reporting Station
Haze Haze  
Wind Chill: 50°   Ceiling: 200
Heat Index: 50°   Visibility: 3mi
Dew Point: 49°   Wind: 3mph
Humidity: 96%   Direction: 120°ESE
Pressure: 29.97"   Gusts: NA
Location:  35.1188°N, 120.589°W
Report Text: KSBP 240938Z AUTO 12003KT 3SM BR BKN002 10/09 A2997 RMK AO2 T01000094
Loading
Personal Weather Stations






























Interactive Weather Map
Tropical Storm Tracking
New forecast layout! Learn more

10-Day Weather Forecast

Advertisements
Track Severe Weather on mobile